createdAt,value
2023-02-02T01:47:06.363Z,47.90
2023-02-02T01:49:39.361Z,49.70
2023-02-02T01:52:07.424Z,59.03
2023-02-02T01:54:43.702Z,49.88
2023-02-02T01:57:34.769Z,54.53
2023-02-02T02:00:05.783Z,53.35
2023-02-02T02:02:44.590Z,53.95
2023-02-02T02:05:13.029Z,49.20
2023-02-02T02:07:42.444Z,53.60
2023-02-02T02:10:11.174Z,53.60
2023-02-02T02:12:39.534Z,54.70
2023-02-02T02:15:26.686Z,54.63
2023-02-02T02:18:31.611Z,57.85
2023-02-02T02:21:51.147Z,52.42
2023-02-02T02:25:14.678Z,61.78
2023-02-02T02:28:03.543Z,55.25
2023-02-02T02:30:37.553Z,56.33
2023-02-02T02:33:33.692Z,55.85
2023-02-02T02:36:18.443Z,64.97
2023-02-02T02:39:03.429Z,57.53
2023-02-02T02:41:38.184Z,61.33
2023-02-02T02:44:09.355Z,57.45
2023-02-02T02:46:37.494Z,56.45
2023-02-02T02:49:11.426Z,63.25
2023-02-02T02:51:46.027Z,58.30
2023-02-02T02:54:31.104Z,64.18
2023-02-02T02:56:59.604Z,59.78
2023-02-02T03:00:02.239Z,67.78
2023-02-02T03:02:37.507Z,59.53
2023-02-02T03:05:20.247Z,61.13
2023-02-02T03:07:55.418Z,61.42
2023-02-02T03:10:24.530Z,60.53
2023-02-02T03:12:52.896Z,64.38
2023-02-02T03:15:20.723Z,60.08
2023-02-02T03:17:49.469Z,54.88
2023-02-02T03:20:18.994Z,66.97
2023-02-02T03:22:47.499Z,62.47
2023-02-02T03:25:16.488Z,63.10
2023-02-02T03:27:44.824Z,61.65
2023-02-02T03:30:13.472Z,64.85
2023-02-02T03:32:42.196Z,70.20
2023-02-02T03:35:10.124Z,52.58
2023-02-02T03:37:38.059Z,61.13
2023-02-02T03:40:06.832Z,57.30
2023-02-02T03:42:34.790Z,53.88
2023-02-02T03:45:02.708Z,51.50
2023-02-02T03:47:31.144Z,52.13
2023-02-02T03:49:59.114Z,48.75
2023-02-02T03:52:27.329Z,49.10
2023-02-02T03:54:55.087Z,49.55
2023-02-02T03:57:23.389Z,51.15
2023-02-02T03:59:51.272Z,48.67
2023-02-02T04:02:19.334Z,46.53
2023-02-02T04:04:47.236Z,46.05
2023-02-02T04:07:15.338Z,43.80
2023-02-02T04:09:43.292Z,47.38
2023-02-02T04:12:11.090Z,41.47
2023-02-02T04:14:39.001Z,42.45
2023-02-02T04:17:06.841Z,43.38
2023-02-02T04:19:35.244Z,40.70
2023-02-02T04:22:04.236Z,41.42
2023-02-02T04:24:33.292Z,38.50
2023-02-02T04:27:01.099Z,38.60
2023-02-02T04:29:29.919Z,39.75
2023-02-02T04:32:00.956Z,46.33
2023-02-02T04:34:34.300Z,39.58
2023-02-02T04:37:02.457Z,43.00
2023-02-02T04:39:31.489Z,54.22
2023-02-02T04:41:59.333Z,44.83
2023-02-02T04:44:27.356Z,41.88
2023-02-02T04:46:55.623Z,48.40
2023-02-02T04:49:23.730Z,46.70
2023-02-02T04:51:53.453Z,53.92
2023-02-02T04:54:31.841Z,48.03
2023-02-02T04:57:00.432Z,48.25
2023-02-02T04:59:31.320Z,55.58
2023-02-02T05:02:00.913Z,55.95
2023-02-02T05:04:31.614Z,60.35
2023-02-02T05:07:02.346Z,55.83
2023-02-02T05:09:30.308Z,57.33
2023-02-02T05:11:58.197Z,58.00
2023-02-02T05:14:27.455Z,51.25
2023-02-02T05:16:55.325Z,59.85
2023-02-02T05:19:23.314Z,53.38
2023-02-02T05:21:52.725Z,54.90
2023-02-02T05:24:20.646Z,52.45
2023-02-02T05:26:49.183Z,50.85
2023-02-02T05:29:17.957Z,53.88
2023-02-02T05:31:46.650Z,51.53
2023-02-02T05:34:37.358Z,54.92
2023-02-02T05:37:09.735Z,57.15
2023-02-02T05:39:38.118Z,51.42
2023-02-02T05:42:12.160Z,52.88
2023-02-02T05:44:40.009Z,53.92
2023-02-02T05:47:08.224Z,62.45
2023-02-02T05:49:37.056Z,50.90
2023-02-02T05:52:06.743Z,50.90
2023-02-02T05:54:36.358Z,53.70
2023-02-02T05:57:05.676Z,51.13
2023-02-02T05:59:37.195Z,54.03
2023-02-02T06:02:05.516Z,61.50
2023-02-02T06:04:39.683Z,57.15
2023-02-02T06:07:10.368Z,60.17
2023-02-02T06:09:39.818Z,57.10
2023-02-02T06:12:10.414Z,54.85
2023-02-02T06:14:40.168Z,59.30
2023-02-02T06:17:08.724Z,57.42
2023-02-02T06:19:36.988Z,55.38
2023-02-02T06:22:04.915Z,50.55
2023-02-02T06:24:33.080Z,46.38
2023-02-02T06:27:01.247Z,46.88
2023-02-02T06:29:29.806Z,47.45
2023-02-02T06:32:00.061Z,56.42
2023-02-02T06:34:31.053Z,50.65
2023-02-02T06:37:01.245Z,56.92
2023-02-02T06:39:29.921Z,51.40
2023-02-02T06:41:59.318Z,51.13
2023-02-02T06:44:31.016Z,53.00
2023-02-02T06:46:59.211Z,51.35
2023-02-02T06:49:29.639Z,54.58
2023-02-02T06:51:59.327Z,54.75
2023-02-02T06:54:27.859Z,49.65
2023-02-02T06:56:56.305Z,48.30
2023-02-02T06:59:26.474Z,43.75
2023-02-02T07:02:01.559Z,46.53
2023-02-02T07:04:32.001Z,48.00
2023-02-02T07:07:01.020Z,40.83
2023-02-02T07:09:34.154Z,47.45
2023-02-02T07:12:05.214Z,40.50
2023-02-02T07:14:38.261Z,42.10
2023-02-02T07:17:29.321Z,48.38
2023-02-02T10:17:44.633Z,29.45
2023-02-02T10:20:44.793Z,34.72
2023-02-02T10:23:28.303Z,32.70
2023-02-02T10:26:23.586Z,34.25
2023-02-02T10:29:18.001Z,31.73
2023-02-02T10:32:12.696Z,34.10
2023-02-02T10:34:41.930Z,31.55
2023-02-02T10:37:30.819Z,33.40
2023-02-02T10:40:06.211Z,32.72
2023-02-02T10:43:20.725Z,29.43
2023-02-02T10:45:50.728Z,31.75
2023-02-02T10:48:24.001Z,24.83
2023-02-02T10:50:54.355Z,31.08
2023-02-02T10:53:22.371Z,27.48
2023-02-02T10:56:05.008Z,32.03
2023-02-02T10:58:41.361Z,31.88
2023-02-02T11:01:11.694Z,32.92
2023-02-02T11:03:42.875Z,30.23
2023-02-02T11:06:29.798Z,33.53
2023-02-02T11:08:59.674Z,32.58
2023-02-02T11:11:28.636Z,33.53
2023-02-02T11:14:02.513Z,35.33
2023-02-02T11:16:41.900Z,32.72
2023-02-02T11:19:19.877Z,25.00
2023-02-02T11:21:49.576Z,30.02
2023-02-02T11:24:45.445Z,30.92
2023-02-02T11:27:17.380Z,24.77
2023-02-02T11:29:52.552Z,26.42
2023-02-02T11:32:35.696Z,26.77
2023-02-02T11:35:11.177Z,25.55
2023-02-02T11:37:51.801Z,29.73
2023-02-02T11:40:40.371Z,33.40
2023-02-02T11:43:20.241Z,26.65
2023-02-02T11:45:53.622Z,30.58
2023-02-02T11:48:24.904Z,27.52
2023-02-02T11:50:55.536Z,28.83
2023-02-02T11:53:33.270Z,34.20
2023-02-02T11:56:06.353Z,24.80
2023-02-02T11:58:47.753Z,33.20
2023-02-02T12:01:24.923Z,26.98
2023-02-02T12:03:56.374Z,26.50
2023-02-02T12:06:34.231Z,31.15
2023-02-02T12:09:05.173Z,34.15
2023-02-02T12:11:39.299Z,29.58
2023-02-02T12:14:21.975Z,29.02
2023-02-02T12:17:00.193Z,27.40
2023-02-02T12:20:05.804Z,21.52
2023-02-02T12:22:55.345Z,19.30
2023-02-02T12:25:32.121Z,19.95
2023-02-02T12:28:16.678Z,19.52
2023-02-02T12:31:35.280Z,17.65
2023-02-02T12:34:06.662Z,18.23
2023-02-02T12:36:37.529Z,20.35
2023-02-02T12:39:17.666Z,18.58
2023-02-02T12:41:45.679Z,21.40
2023-02-02T12:44:33.001Z,21.98
2023-02-02T12:47:09.430Z,22.33
2023-02-02T12:49:42.940Z,24.88
2023-02-02T12:52:42.204Z,22.67
2023-02-02T12:55:22.021Z,23.63
2023-02-02T12:57:55.805Z,19.08
2023-02-02T13:00:38.968Z,22.27
2023-02-02T13:03:30.330Z,20.90
2023-02-02T13:06:10.682Z,27.45
2023-02-02T13:09:02.349Z,20.20
2023-02-02T13:11:49.913Z,24.42
2023-02-02T13:14:24.245Z,22.33
2023-02-02T13:16:58.164Z,17.92
2023-02-02T13:19:37.348Z,17.92
2023-02-02T13:22:07.388Z,16.55
2023-02-02T13:24:37.380Z,25.85
2023-02-02T13:27:06.328Z,21.00
2023-02-02T13:29:47.277Z,20.95
2023-02-02T13:32:32.159Z,19.30
2023-02-02T13:35:20.769Z,17.70
2023-02-02T13:37:53.826Z,15.57
2023-02-02T13:40:29.789Z,16.05
2023-02-02T13:43:13.342Z,18.90
2023-02-02T13:46:19.507Z,19.52
2023-02-02T13:48:52.711Z,24.52
2023-02-02T13:51:42.360Z,23.58
2023-02-02T13:54:49.248Z,20.02
2023-02-02T13:58:04.247Z,22.23
2023-02-02T14:00:35.758Z,24.63
2023-02-02T14:03:06.155Z,20.13
2023-02-02T14:05:39.154Z,28.83
2023-02-02T14:08:18.860Z,29.38
2023-02-02T14:10:53.604Z,21.45
2023-02-02T14:14:03.589Z,24.00
2023-02-02T14:16:32.112Z,24.17
2023-02-02T14:19:00.851Z,25.75
2023-02-02T14:21:32.096Z,24.02
2023-02-02T14:24:22.191Z,22.60
2023-02-02T14:26:52.675Z,22.20
2023-02-02T14:29:32.556Z,19.85
2023-02-02T14:32:35.789Z,23.92
2023-02-02T14:35:13.837Z,28.33
2023-02-02T14:38:09.173Z,32.20
2023-02-02T14:40:48.923Z,25.80
2023-02-02T14:43:49.968Z,27.13
2023-02-02T14:46:25.479Z,30.00
2023-02-02T14:48:57.279Z,37.05
2023-02-02T14:51:27.060Z,35.00
2023-02-02T14:54:08.990Z,32.33
2023-02-02T14:56:52.038Z,36.92
2023-02-02T14:59:32.665Z,34.65
2023-02-02T15:02:16.206Z,34.20
2023-02-02T15:04:48.129Z,33.33
2023-02-02T15:07:23.416Z,42.10
2023-02-02T15:09:56.561Z,35.72
2023-02-02T15:12:29.924Z,34.30
2023-02-02T15:15:17.807Z,36.90
2023-02-02T15:17:51.814Z,39.90
2023-02-02T15:20:44.799Z,44.17
2023-02-02T15:23:34.495Z,37.65
2023-02-02T15:26:25.428Z,44.30
2023-02-02T15:29:05.897Z,40.70
2023-02-02T15:31:40.090Z,44.65
2023-02-02T15:34:27.737Z,40.00
2023-02-02T15:36:57.156Z,32.83
2023-02-02T15:39:31.533Z,39.95
2023-02-02T15:42:19.621Z,36.28
2023-02-02T15:44:48.128Z,34.40
2023-02-02T15:47:18.867Z,39.78
2023-02-02T15:49:46.629Z,34.90
2023-02-02T15:52:17.782Z,34.33
2023-02-02T15:55:00.547Z,31.05
2023-02-02T15:57:33.764Z,39.50
2023-02-02T16:00:23.980Z,43.00
2023-02-02T16:03:13.401Z,41.28
2023-02-02T16:05:47.537Z,38.50
2023-02-02T16:08:27.978Z,38.93
2023-02-02T16:11:17.067Z,36.95
2023-02-02T16:14:39.800Z,40.92
2023-02-02T16:17:32.112Z,41.67
2023-02-02T16:20:04.362Z,41.58
2023-02-02T16:22:33.317Z,40.50
2023-02-02T16:25:04.225Z,40.67
2023-02-02T16:27:34.665Z,40.25
2023-02-02T16:30:08.178Z,37.85
2023-02-02T16:32:39.026Z,42.00
2023-02-02T16:35:27.900Z,42.22
2023-02-02T16:38:32.062Z,43.80
2023-02-02T16:41:08.104Z,45.17
2023-02-02T16:43:39.364Z,40.13
2023-02-02T16:46:13.789Z,44.17
2023-02-02T16:48:45.524Z,37.67
2023-02-02T16:51:16.606Z,40.92
2023-02-02T16:53:52.086Z,41.45
2023-02-02T16:56:22.208Z,39.72
2023-02-02T16:58:58.294Z,36.40
2023-02-02T17:01:39.586Z,34.78
2023-02-02T17:04:34.220Z,29.85
2023-02-02T17:07:13.312Z,23.88
2023-02-02T17:10:19.110Z,28.17
2023-02-02T17:12:47.436Z,27.65
2023-02-02T17:15:35.198Z,25.23
2023-02-02T17:18:04.891Z,24.25
2023-02-02T17:20:34.795Z,25.38
2023-02-02T17:23:05.040Z,34.47
2023-02-02T17:25:40.391Z,29.50
2023-02-02T17:28:11.674Z,31.95
2023-02-02T17:30:46.042Z,34.50
2023-02-02T17:33:17.205Z,26.33
2023-02-02T17:35:54.750Z,29.42
2023-02-02T17:38:24.947Z,36.35
2023-02-02T17:41:01.354Z,35.10
2023-02-02T17:43:32.939Z,30.65
2023-02-02T17:46:12.500Z,27.50
2023-02-02T17:48:40.615Z,27.70
2023-02-02T17:51:15.497Z,30.90
2023-02-02T17:53:43.988Z,25.23
2023-02-02T17:56:12.514Z,26.95
2023-02-02T17:58:40.490Z,27.13
2023-02-02T18:01:08.749Z,26.33
2023-02-02T18:03:43.427Z,29.73
2023-02-02T18:06:13.829Z,22.92
2023-02-02T18:09:02.550Z,29.40
2023-02-02T18:11:31.891Z,28.65
2023-02-02T18:14:00.091Z,34.45
2023-02-02T18:16:28.092Z,30.63
2023-02-02T18:18:57.491Z,30.98
2023-02-02T18:21:26.678Z,33.65
2023-02-02T18:23:57.677Z,31.42
2023-02-02T18:26:27.856Z,33.20
2023-02-02T18:28:59.764Z,36.30
2023-02-02T18:31:29.423Z,36.08
2023-02-02T18:33:58.449Z,33.10
2023-02-02T18:36:26.307Z,26.67
2023-02-02T18:38:55.963Z,35.30
2023-02-02T18:41:24.268Z,33.72
2023-02-02T18:43:55.014Z,32.70
2023-02-02T18:46:23.155Z,30.38
2023-02-02T18:48:51.529Z,28.48
2023-02-02T18:51:22.103Z,30.63
2023-02-02T18:53:50.840Z,30.67
2023-02-02T18:56:21.529Z,30.00
2023-02-02T18:58:49.391Z,30.08
2023-02-02T19:01:20.081Z,27.52
2023-02-02T19:03:55.284Z,26.35
2023-02-02T19:06:45.420Z,43.42
2023-02-02T19:09:22.510Z,24.90
2023-02-02T19:11:51.657Z,32.42
2023-02-02T19:14:33.379Z,23.20
2023-02-02T19:17:25.392Z,25.73
2023-02-02T19:19:54.810Z,25.02
2023-02-02T19:22:23.925Z,27.92
2023-02-02T19:24:52.562Z,24.48
2023-02-02T19:27:29.151Z,24.33
2023-02-02T19:30:03.907Z,30.67
2023-02-02T19:32:46.534Z,25.35
2023-02-02T19:35:22.510Z,28.60
2023-02-02T19:40:21.139Z,26.08
2023-02-02T19:42:56.313Z,27.13
2023-02-02T19:45:30.171Z,28.88
2023-02-02T19:48:00.429Z,28.02
2023-02-02T19:50:32.918Z,32.72
2023-02-02T19:53:05.805Z,28.05
2023-02-02T19:55:36.162Z,28.15
2023-02-02T19:58:21.475Z,27.77
2023-02-02T20:00:55.948Z,25.73
2023-02-02T20:03:26.046Z,27.75
2023-02-02T20:06:01.185Z,25.98
2023-02-02T20:08:34.889Z,25.17
2023-02-02T20:11:19.414Z,25.17
2023-02-02T20:13:55.444Z,29.02
2023-02-02T20:16:41.054Z,32.50
2023-02-02T20:19:17.232Z,29.67
2023-02-02T20:21:46.896Z,25.83
2023-02-02T20:24:19.722Z,25.42
2023-02-02T20:26:48.789Z,22.77
2023-02-02T20:29:38.845Z,24.13
2023-02-02T20:32:12.746Z,19.52
2023-02-02T20:34:40.981Z,16.10
2023-02-02T20:37:14.548Z,21.55
2023-02-02T20:39:47.894Z,17.33
2023-02-02T20:42:15.948Z,20.63
2023-02-02T20:44:43.781Z,15.82
2023-02-02T20:47:12.869Z,11.88
2023-02-02T20:49:41.125Z,18.58
2023-02-02T20:52:12.010Z,16.50
2023-02-02T20:54:41.585Z,16.10
2023-02-02T20:57:11.548Z,18.67
2023-02-02T20:59:42.506Z,18.70
2023-02-02T21:02:18.858Z,18.30
2023-02-02T21:05:04.210Z,14.68
2023-02-02T21:07:43.841Z,14.60
2023-02-02T21:10:13.388Z,16.70
2023-02-02T21:12:43.782Z,17.10
2023-02-02T21:15:12.113Z,17.35
2023-02-02T21:17:44.103Z,17.98
2023-02-02T21:20:24.866Z,21.52
2023-02-02T21:22:53.078Z,16.63
2023-02-02T21:25:20.830Z,16.38
2023-02-02T21:27:57.178Z,19.58
2023-02-02T21:30:25.716Z,15.90
2023-02-02T21:32:53.817Z,14.73
2023-02-02T21:35:22.549Z,19.33
2023-02-02T21:37:52.051Z,18.45
2023-02-02T21:40:32.918Z,16.77
2023-02-02T21:43:09.360Z,17.42
2023-02-02T21:48:34.226Z,20.73
2023-02-02T21:51:23.547Z,17.65
2023-02-02T21:53:52.043Z,21.50
2023-02-02T21:56:36.100Z,20.33
2023-02-02T21:59:15.520Z,17.88
2023-02-02T22:01:43.505Z,14.57
2023-02-02T22:04:24.542Z,17.20
2023-02-02T22:06:54.530Z,15.82
2023-02-02T22:09:24.736Z,18.58
2023-02-02T22:12:02.933Z,17.80
2023-02-02T22:14:38.947Z,18.35
2023-02-02T22:17:26.216Z,17.17
2023-02-02T22:20:01.756Z,22.58
2023-02-02T22:22:32.804Z,16.23
2023-02-02T22:25:04.270Z,17.05
2023-02-02T22:27:46.300Z,17.55
2023-02-02T22:30:38.710Z,14.50
2023-02-02T22:33:07.762Z,18.65
2023-02-02T22:35:35.593Z,16.20
2023-02-02T22:38:03.805Z,18.52
2023-02-02T22:40:33.010Z,18.55
2023-02-02T22:43:05.814Z,16.88
2023-02-02T22:45:34.422Z,16.92
2023-02-02T22:48:02.313Z,15.43
2023-02-02T22:50:35.026Z,12.65
2023-02-02T22:53:04.151Z,12.27
2023-02-02T22:55:33.216Z,12.13
2023-02-02T22:58:02.766Z,13.55
2023-02-02T23:00:32.327Z,12.30
2023-02-02T23:03:00.334Z,11.18
2023-02-02T23:05:28.444Z,16.45
2023-02-02T23:07:57.095Z,16.77
2023-02-02T23:10:26.961Z,19.05
2023-02-02T23:12:58.696Z,22.45
2023-02-02T23:15:27.244Z,26.77
2023-02-02T23:17:55.137Z,28.67
2023-02-02T23:20:27.031Z,27.38
2023-02-02T23:22:55.320Z,25.58
2023-02-02T23:25:23.769Z,20.05
2023-02-02T23:27:51.932Z,28.80
2023-02-02T23:30:22.289Z,19.08
2023-02-02T23:33:10.844Z,18.90
2023-02-02T23:35:42.042Z,23.95
2023-02-02T23:38:10.432Z,14.88
2023-02-02T23:40:38.346Z,17.63
2023-02-02T23:43:10.101Z,19.13
2023-02-02T23:45:40.978Z,14.65
2023-02-02T23:48:10.433Z,16.27
2023-02-02T23:50:40.513Z,17.88
2023-02-02T23:53:09.274Z,23.50
2023-02-02T23:55:41.719Z,19.70
2023-02-02T23:58:10.377Z,17.85
